createdAt,value
2019-03-31T00:02:26.864Z,100850.11
2019-03-31T00:04:59.539Z,100837.56
2019-03-31T00:07:32.218Z,100832.34
2019-03-31T00:10:06.571Z,100828.83
2019-03-31T00:12:39.627Z,100832.34
2019-03-31T00:15:12.506Z,100827.25
2019-03-31T00:17:45.094Z,100821.89
2019-03-31T00:20:17.972Z,100822.75
2019-03-31T00:22:50.552Z,100819.17
2019-03-31T00:25:23.126Z,100821.27
2019-03-31T00:27:55.697Z,100822.53
2019-03-31T00:30:28.998Z,100812.42
2019-03-31T00:33:01.730Z,100821.13
2019-03-31T00:35:34.348Z,100811.98
2019-03-31T00:38:06.927Z,100806.44
2019-03-31T00:40:39.507Z,100806.69
2019-03-31T00:43:12.084Z,100806.69
2019-03-31T00:45:44.654Z,100801.42
2019-03-31T00:48:18.263Z,100793.34
2019-03-31T00:50:50.834Z,100800.14
2019-03-31T00:53:24.542Z,100792.54
2019-03-31T00:55:57.117Z,100796.45
2019-03-31T00:58:29.692Z,100799.14
2019-03-31T01:01:04.301Z,100790.45
2019-03-31T01:03:38.940Z,100798.73
2019-03-31T01:06:12.443Z,100798.66
2019-03-31T01:08:46.754Z,100802.27
2019-03-31T01:11:22.408Z,100795.53
2019-03-31T01:13:56.930Z,100794.22
2019-03-31T01:16:31.446Z,100790.38
2019-03-31T01:19:04.545Z,100791.72
2019-03-31T01:21:37.119Z,100796.45
2019-03-31T01:24:09.805Z,100794.33
2019-03-31T01:26:43.278Z,100786.45
2019-03-31T01:29:17.102Z,100785.08
2019-03-31T01:31:50.906Z,100787.66
2019-03-31T01:34:24.916Z,100787.20
2019-03-31T01:36:57.591Z,100787.69
2019-03-31T01:39:31.504Z,100783.67
2019-03-31T01:42:04.179Z,100783.40
2019-03-31T01:44:36.369Z,100782.98
2019-03-31T01:47:09.438Z,100782.47
2019-03-31T01:49:42.010Z,100779.48
2019-03-31T01:52:14.594Z,100775.56
2019-03-31T01:54:47.171Z,100778.06
2019-03-31T01:57:19.747Z,100777.38
2019-03-31T01:59:52.167Z,100774.84
2019-03-31T02:02:29.397Z,100770.85
2019-03-31T02:05:01.982Z,100777.34
2019-03-31T02:07:35.478Z,100767.28
2019-03-31T02:10:09.590Z,100767.90
2019-03-31T02:12:43.812Z,100768.80
2019-03-31T02:15:16.891Z,100769.76
2019-03-31T02:17:49.531Z,100769.72
2019-03-31T02:20:23.690Z,100767.11
2019-03-31T02:22:56.268Z,100765.63
2019-03-31T02:25:28.458Z,100760.38
2019-03-31T02:28:01.007Z,100754.66
2019-03-31T02:30:33.585Z,100759.06
2019-03-31T02:33:06.059Z,100758.06
2019-03-31T02:35:38.239Z,100757.66
2019-03-31T02:38:10.805Z,100763.29
2019-03-31T02:40:43.886Z,100756.45
2019-03-31T02:43:16.463Z,100761.78
2019-03-31T02:45:49.253Z,100756.04
2019-03-31T02:48:21.826Z,100754.94
2019-03-31T02:50:55.835Z,100753.29
2019-03-31T02:53:28.571Z,100751.30
2019-03-31T02:56:02.039Z,100752.30
2019-03-31T02:58:34.790Z,100748.09
2019-03-31T03:01:07.475Z,100745.55
2019-03-31T03:03:42.408Z,100740.45
2019-03-31T03:06:16.176Z,100752.52
2019-03-31T03:08:51.593Z,100740.41
2019-03-31T03:11:25.761Z,100746.20
2019-03-31T03:14:02.237Z,100742.41
2019-03-31T03:16:34.947Z,100742.58
2019-03-31T03:19:07.487Z,100740.03
2019-03-31T03:21:40.073Z,100744.05
2019-03-31T03:24:12.657Z,100741.94
2019-03-31T03:26:45.226Z,100733.72
2019-03-31T03:29:17.691Z,100741.14
2019-03-31T03:31:50.614Z,100748.26
2019-03-31T03:34:23.374Z,100736.61
2019-03-31T03:36:55.949Z,100731.89
2019-03-31T03:39:28.516Z,100746.05
2019-03-31T03:42:01.091Z,100745.06
2019-03-31T03:44:33.669Z,100735.44
2019-03-31T03:47:06.248Z,100740.75
2019-03-31T03:49:38.838Z,100737.75
2019-03-31T03:52:11.389Z,100731.31
2019-03-31T03:54:43.975Z,100732.70
2019-03-31T03:57:16.569Z,100726.23
2019-03-31T03:59:49.101Z,100723.70
2019-03-31T04:02:21.318Z,100725.43
2019-03-31T04:04:53.974Z,100718.59
2019-03-31T04:07:26.551Z,100727.75
2019-03-31T04:09:59.127Z,100737.64
2019-03-31T04:12:31.708Z,100739.34
2019-03-31T04:15:04.273Z,100739.41
2019-03-31T04:17:36.858Z,100735.89
2019-03-31T04:20:09.438Z,100739.34
2019-03-31T04:22:42.026Z,100741.52
2019-03-31T04:25:14.594Z,100740.14
2019-03-31T04:27:47.227Z,100740.97
2019-03-31T04:30:19.739Z,100737.02
2019-03-31T04:32:51.938Z,100754.73
2019-03-31T04:35:24.586Z,100738.14
2019-03-31T04:37:57.157Z,100746.76
2019-03-31T04:40:29.531Z,100755.11
2019-03-31T04:43:01.722Z,100766.28
2019-03-31T04:45:34.688Z,100771.03
2019-03-31T04:48:07.266Z,100760.53
2019-03-31T04:50:41.271Z,100760.47
2019-03-31T04:53:14.568Z,100764.30
2019-03-31T04:55:48.477Z,100751.80
2019-03-31T04:58:21.056Z,100753.94
2019-03-31T05:00:53.640Z,100757.83
2019-03-31T05:03:26.211Z,100758.72
2019-03-31T05:05:58.790Z,100751.83
2019-03-31T05:08:31.565Z,100761.88
2019-03-31T05:11:04.146Z,100757.12
2019-03-31T05:13:36.558Z,100768.52
2019-03-31T05:16:09.079Z,100765.52
2019-03-31T05:18:41.763Z,100767.30
2019-03-31T05:21:14.237Z,100769.63
2019-03-31T05:23:46.818Z,100780.18
2019-03-31T05:26:20.427Z,100779.00
2019-03-31T05:28:52.997Z,100779.09
2019-03-31T05:31:25.630Z,100794.66
2019-03-31T05:33:57.833Z,100789.55
2019-03-31T05:36:30.310Z,100793.98
2019-03-31T05:39:02.903Z,100791.45
2019-03-31T05:41:35.468Z,100799.02
2019-03-31T05:44:08.450Z,100801.78
2019-03-31T05:46:41.037Z,100805.41
2019-03-31T05:49:13.716Z,100798.45
2019-03-31T05:51:46.290Z,100801.78
2019-03-31T05:54:18.865Z,100796.22
2019-03-31T05:56:51.442Z,100798.66
2019-03-31T05:59:24.018Z,100785.04
2019-03-31T06:01:56.596Z,100811.70
2019-03-31T06:04:33.437Z,100803.94
2019-03-31T06:07:02.979Z,100802.41
2019-03-31T06:09:35.552Z,100804.69
2019-03-31T06:12:08.139Z,100812.25
2019-03-31T06:14:40.724Z,100804.97
2019-03-31T06:17:14.309Z,100810.91
2019-03-31T06:19:46.884Z,100814.31
2019-03-31T06:22:19.454Z,100809.65
2019-03-31T06:24:52.033Z,100814.58
2019-03-31T06:27:25.636Z,100815.60
2019-03-31T06:29:58.210Z,100818.07
2019-03-31T06:32:30.790Z,100826.65
2019-03-31T06:35:02.983Z,100823.20
2019-03-31T06:37:35.529Z,100827.14
2019-03-31T06:40:08.016Z,100835.30
2019-03-31T06:42:40.383Z,100840.47
2019-03-31T06:45:12.958Z,100839.66
2019-03-31T06:47:45.529Z,100847.47
2019-03-31T06:50:18.214Z,100852.08
2019-03-31T06:52:50.738Z,100855.89
2019-03-31T06:55:23.474Z,100853.41
2019-03-31T06:57:56.046Z,100852.87
2019-03-31T07:00:28.622Z,100853.48
2019-03-31T07:03:01.251Z,100856.52
2019-03-31T07:05:33.457Z,100864.75
2019-03-31T07:08:06.147Z,100865.54
2019-03-31T07:10:38.727Z,100864.19
2019-03-31T07:13:11.314Z,100874.92
2019-03-31T07:15:43.882Z,100866.39
2019-03-31T07:18:16.495Z,100869.86
2019-03-31T07:20:49.135Z,100874.50
2019-03-31T07:23:21.805Z,100875.61
2019-03-31T07:25:54.393Z,100877.88
2019-03-31T07:28:26.974Z,100881.20
2019-03-31T07:30:59.570Z,100881.70
2019-03-31T07:33:32.521Z,100890.07
2019-03-31T07:36:05.106Z,100903.22
2019-03-31T07:38:39.241Z,100902.44
2019-03-31T07:41:12.985Z,100915.41
2019-03-31T07:43:47.027Z,100918.45
2019-03-31T07:46:19.707Z,100920.19
2019-03-31T07:48:52.298Z,100922.94
2019-03-31T07:51:24.865Z,100916.08
2019-03-31T07:53:57.441Z,100923.42
2019-03-31T07:56:30.028Z,100923.14
2019-03-31T07:59:02.672Z,100927.66
2019-03-31T08:01:35.270Z,100929.53
2019-03-31T08:04:07.855Z,100932.17
2019-03-31T08:06:40.936Z,100930.53
2019-03-31T08:09:13.511Z,100941.06
2019-03-31T08:11:46.093Z,100944.27
2019-03-31T08:14:18.670Z,100946.48
2019-03-31T08:16:51.244Z,100953.20
2019-03-31T08:19:23.824Z,100952.45
2019-03-31T08:21:56.502Z,100952.02
2019-03-31T08:24:30.611Z,100959.76
2019-03-31T08:27:05.575Z,100964.61
2019-03-31T08:29:37.511Z,100968.65
2019-03-31T08:32:10.188Z,100976.56
2019-03-31T08:34:42.768Z,100976.31
2019-03-31T08:37:14.969Z,100984.33
2019-03-31T08:39:47.530Z,100981.58
2019-03-31T08:42:20.086Z,100976.05
2019-03-31T08:44:52.220Z,100978.23
2019-03-31T08:47:24.931Z,100981.88
2019-03-31T08:49:57.506Z,100996.13
2019-03-31T08:52:30.391Z,101000.42
2019-03-31T08:55:02.967Z,101003.30
2019-03-31T08:57:36.678Z,101014.19
2019-03-31T09:00:13.431Z,101026.08
2019-03-31T09:02:46.023Z,101019.55
2019-03-31T09:05:18.601Z,101022.73
2019-03-31T09:07:51.171Z,101034.80
2019-03-31T09:10:23.754Z,101039.80
2019-03-31T09:12:56.330Z,101044.22
2019-03-31T09:15:28.907Z,101047.05
2019-03-31T09:18:01.482Z,101056.38
2019-03-31T09:20:34.056Z,101055.38
2019-03-31T09:23:06.251Z,101062.67
2019-03-31T09:25:38.797Z,101061.83
2019-03-31T09:28:37.849Z,101070.63
2019-03-31T09:31:11.243Z,101068.72
2019-03-31T09:33:44.025Z,101071.89
2019-03-31T09:36:16.994Z,101075.38
2019-03-31T09:38:49.972Z,101074.45
2019-03-31T09:41:22.227Z,101081.55
2019-03-31T09:43:54.946Z,101080.09
2019-03-31T09:46:28.135Z,101080.03
2019-03-31T09:49:00.711Z,101079.61
2019-03-31T09:51:32.845Z,101080.50
2019-03-31T09:54:05.970Z,101090.44
2019-03-31T09:56:39.570Z,101089.79
2019-03-31T09:59:12.153Z,101090.80
2019-03-31T10:01:45.027Z,101091.38
2019-03-31T10:04:18.224Z,101088.55
2019-03-31T10:06:50.793Z,101091.09
2019-03-31T10:09:23.371Z,101091.94
2019-03-31T10:11:56.153Z,101085.23
2019-03-31T10:14:28.831Z,101094.34
2019-03-31T10:17:01.518Z,101087.23
2019-03-31T10:19:34.195Z,101088.45
2019-03-31T10:22:06.781Z,101090.13
2019-03-31T10:24:39.447Z,101084.22
2019-03-31T10:27:12.325Z,101082.66
2019-03-31T10:29:45.419Z,101085.50
2019-03-31T10:32:19.218Z,101095.14
2019-03-31T10:34:53.440Z,101084.62
2019-03-31T10:37:26.026Z,101084.72
2019-03-31T10:39:59.209Z,101092.33
2019-03-31T10:42:31.692Z,101087.18
2019-03-31T10:45:05.798Z,101103.90
2019-03-31T10:47:38.682Z,101086.98
2019-03-31T10:50:11.512Z,101101.19
2019-03-31T10:52:43.599Z,101100.75
2019-03-31T10:55:16.232Z,101102.44
2019-03-31T10:57:50.012Z,101106.77
2019-03-31T11:00:35.897Z,101111.01
2019-03-31T11:03:09.030Z,101105.49
2019-03-31T11:05:42.991Z,101112.55
2019-03-31T11:08:15.891Z,101117.10
2019-03-31T11:10:48.867Z,101117.56
2019-03-31T11:13:21.446Z,101116.36
2019-03-31T11:15:57.343Z,101118.50
2019-03-31T11:18:28.433Z,101116.24
2019-03-31T11:21:02.659Z,101122.05
2019-03-31T11:23:35.281Z,101115.35
2019-03-31T11:26:08.117Z,101122.04
2019-03-31T11:28:41.100Z,101119.69
2019-03-31T11:31:13.790Z,101116.62
2019-03-31T11:33:48.098Z,101118.63
2019-03-31T11:36:20.883Z,101125.48
2019-03-31T11:38:53.468Z,101130.02
2019-03-31T11:41:26.442Z,101135.56
2019-03-31T11:44:01.471Z,101144.05
2019-03-31T11:46:34.058Z,101135.59
2019-03-31T11:49:07.142Z,101137.79
2019-03-31T11:51:39.820Z,101131.22
2019-03-31T11:54:12.493Z,101142.64
2019-03-31T11:56:44.913Z,101138.71
2019-03-31T11:59:20.681Z,101145.52
2019-03-31T12:01:52.544Z,101143.97
2019-03-31T12:04:25.174Z,101158.45
2019-03-31T12:06:57.841Z,101169.27
2019-03-31T12:09:30.417Z,101174.17
2019-03-31T12:12:03.101Z,101169.80
2019-03-31T12:14:37.409Z,101166.98
2019-03-31T12:17:10.299Z,101166.96
2019-03-31T12:19:43.554Z,101160.91
2019-03-31T12:22:16.678Z,101155.07
2019-03-31T12:24:49.259Z,101151.80
2019-03-31T12:27:21.447Z,101165.19
2019-03-31T12:29:54.002Z,101172.97
2019-03-31T12:32:26.184Z,101178.05
2019-03-31T12:34:58.951Z,101177.77
2019-03-31T12:37:42.243Z,101173.91
2019-03-31T12:40:09.423Z,101174.31
2019-03-31T12:42:42.114Z,101189.16
2019-03-31T12:45:15.606Z,101191.64
2019-03-31T12:47:48.181Z,101193.28
2019-03-31T12:50:21.886Z,101191.82
2019-03-31T12:52:54.568Z,101194.72
2019-03-31T12:55:28.200Z,101195.92
2019-03-31T12:58:02.174Z,101190.66
2019-03-31T13:00:35.166Z,101196.72
2019-03-31T13:03:07.852Z,101188.48
2019-03-31T13:05:40.835Z,101201.89
2019-03-31T13:08:14.111Z,101198.20
2019-03-31T13:10:46.689Z,101189.37
2019-03-31T13:13:19.433Z,101182.39
2019-03-31T13:15:52.107Z,101172.38
2019-03-31T13:18:27.774Z,101189.72
2019-03-31T13:20:58.992Z,101186.62
2019-03-31T13:23:31.634Z,101200.97
2019-03-31T13:26:04.212Z,101186.28
2019-03-31T13:28:36.415Z,101195.36
2019-03-31T13:31:09.151Z,101203.88
2019-03-31T13:33:41.838Z,101197.25
2019-03-31T13:36:14.319Z,101192.22
2019-03-31T13:38:47.504Z,101198.48
2019-03-31T13:41:20.091Z,101200.40
2019-03-31T13:43:52.644Z,101190.27
2019-03-31T13:46:25.859Z,101194.51
2019-03-31T13:48:58.522Z,101197.62
2019-03-31T13:51:30.757Z,101193.47
2019-03-31T13:54:03.716Z,101195.33
2019-03-31T13:56:38.551Z,101183.50
2019-03-31T13:59:11.375Z,101176.97
2019-03-31T14:01:44.902Z,101170.56
2019-03-31T14:07:18.176Z,101171.34
2019-03-31T14:09:56.106Z,101165.02
2019-03-31T14:15:43.976Z,101168.89
2019-03-31T14:28:36.326Z,101166.34
2019-03-31T14:40:52.309Z,101159.58
2019-03-31T14:54:15.111Z,101158.70
2019-03-31T14:57:13.873Z,101166.29
2019-03-31T15:46:58.553Z,101179.19
2019-03-31T15:49:44.051Z,101189.41
2019-03-31T15:58:35.185Z,101216.09
2019-03-31T16:01:18.299Z,101216.72
2019-03-31T16:04:05.565Z,101212.13
2019-03-31T16:06:51.788Z,101216.88
2019-03-31T16:13:02.434Z,101207.44
2019-03-31T16:19:54.980Z,101211.11
2019-03-31T16:22:37.388Z,101224.35
2019-03-31T16:28:52.712Z,101230.84
2019-03-31T16:31:31.422Z,101229.69
2019-03-31T16:34:11.825Z,101228.73
2019-03-31T16:37:07.802Z,101234.25
2019-03-31T16:39:52.988Z,101235.27
2019-03-31T16:42:27.206Z,101233.94
2019-03-31T16:45:13.015Z,101235.86
2019-03-31T16:47:56.853Z,101247.63
2019-03-31T16:50:36.749Z,101244.58
2019-03-31T16:59:35.883Z,101257.38
2019-03-31T17:05:21.669Z,101275.84
2019-03-31T17:07:49.742Z,101287.84
2019-03-31T17:10:30.703Z,101292.59
2019-03-31T17:13:06.854Z,101293.81
2019-03-31T17:15:40.894Z,101292.76
2019-03-31T17:18:14.031Z,101299.77
2019-03-31T17:20:48.929Z,101302.86
2019-03-31T17:23:22.118Z,101308.95
2019-03-31T17:25:54.997Z,101318.28
2019-03-31T17:28:27.649Z,101322.25
2019-03-31T17:31:01.302Z,101324.09
2019-03-31T17:33:35.070Z,101323.34
2019-03-31T17:36:07.312Z,101324.72
2019-03-31T17:38:40.509Z,101332.63
2019-03-31T17:41:15.621Z,101335.13
2019-03-31T17:43:48.988Z,101341.20
2019-03-31T17:46:25.329Z,101350.38
2019-03-31T17:48:59.367Z,101353.53
2019-03-31T17:51:33.959Z,101361.38
2019-03-31T17:54:09.367Z,101364.19
2019-03-31T17:56:45.413Z,101366.92
2019-03-31T17:59:20.203Z,101378.36
2019-03-31T18:01:53.562Z,101382.18
2019-03-31T18:04:26.727Z,101382.74
2019-03-31T18:07:00.182Z,101384.92
2019-03-31T18:09:33.119Z,101385.55
2019-03-31T18:12:06.215Z,101392.67
2019-03-31T18:14:39.132Z,101398.35
2019-03-31T18:17:11.941Z,101404.12
2019-03-31T18:19:44.418Z,101409.08
2019-03-31T18:22:17.326Z,101412.04
2019-03-31T18:24:50.212Z,101418.52
2019-03-31T18:27:23.096Z,101424.23
2019-03-31T18:29:56.933Z,101434.89
2019-03-31T18:32:29.755Z,101434.83
2019-03-31T18:35:03.714Z,101434.05
2019-03-31T18:37:36.131Z,101434.61
2019-03-31T18:40:10.815Z,101446.48
2019-03-31T18:42:45.069Z,101451.21
2019-03-31T18:45:19.832Z,101461.70
2019-03-31T18:47:54.128Z,101457.75
2019-03-31T18:50:27.004Z,101468.67
2019-03-31T18:52:59.549Z,101469.53
2019-03-31T18:55:34.428Z,101470.38
2019-03-31T18:58:08.994Z,101470.95
2019-03-31T19:00:48.976Z,101479.22
2019-03-31T19:03:26.022Z,101475.64
2019-03-31T19:06:07.054Z,101480.02
2019-03-31T19:09:02.840Z,101484.75
2019-03-31T19:11:54.246Z,101485.58
2019-03-31T19:14:39.110Z,101485.59
2019-03-31T19:17:16.466Z,101495.69
2019-03-31T19:19:52.596Z,101495.47
2019-03-31T19:22:37.399Z,101503.83
2019-03-31T19:25:13.586Z,101499.91
2019-03-31T19:27:51.781Z,101507.00
2019-03-31T19:30:35.932Z,101513.02
2019-03-31T19:33:26.667Z,101521.83
2019-03-31T19:36:14.160Z,101517.09
2019-03-31T19:39:03.433Z,101522.39
2019-03-31T19:41:54.515Z,101524.16
2019-03-31T19:44:45.340Z,101524.66
2019-03-31T19:47:36.001Z,101527.89
2019-03-31T19:50:11.697Z,101539.43
2019-03-31T19:52:51.307Z,101540.39
2019-03-31T19:55:35.294Z,101552.19
2019-03-31T19:58:15.713Z,101557.55
2019-03-31T20:00:55.768Z,101556.95
2019-03-31T20:03:45.317Z,101557.55
2019-03-31T20:06:26.884Z,101561.77
2019-03-31T20:09:08.579Z,101557.02
2019-03-31T20:11:43.671Z,101559.25
2019-03-31T20:14:34.088Z,101558.79
2019-03-31T20:17:20.735Z,101560.52
2019-03-31T20:19:58.185Z,101567.67
2019-03-31T20:22:35.184Z,101566.91
2019-03-31T20:25:10.503Z,101572.55
2019-03-31T20:27:48.955Z,101571.70
2019-03-31T20:30:38.779Z,101569.64
2019-03-31T20:33:11.053Z,101573.67
2019-03-31T20:35:55.092Z,101581.89
2019-03-31T20:38:30.437Z,101580.65
2019-03-31T20:41:20.733Z,101575.08
2019-03-31T20:43:53.516Z,101586.39
2019-03-31T20:46:26.295Z,101583.34
2019-03-31T20:48:59.185Z,101581.19
2019-03-31T20:51:31.874Z,101587.11
2019-03-31T20:54:04.718Z,101599.90
2019-03-31T20:56:37.322Z,101599.52
2019-03-31T20:59:10.010Z,101603.92
2019-03-31T21:01:42.882Z,101610.34
2019-03-31T21:04:15.999Z,101608.33
2019-03-31T21:06:49.162Z,101613.53
2019-03-31T21:09:22.147Z,101617.81
2019-03-31T21:11:54.725Z,101621.94
2019-03-31T21:14:27.307Z,101618.16
2019-03-31T21:16:59.880Z,101621.03
2019-03-31T21:19:32.762Z,101628.34
2019-03-31T21:22:05.345Z,101623.95
2019-03-31T21:24:37.909Z,101630.75
2019-03-31T21:27:10.800Z,101633.23
2019-03-31T21:29:43.368Z,101635.31
2019-03-31T21:32:15.906Z,101634.52
2019-03-31T21:34:49.870Z,101641.52
2019-03-31T21:37:23.265Z,101637.13
2019-03-31T21:39:56.144Z,101639.83
2019-03-31T21:42:28.275Z,101642.34
2019-03-31T21:45:00.891Z,101648.51
2019-03-31T21:47:33.562Z,101648.53
2019-03-31T21:50:08.190Z,101650.93
2019-03-31T21:52:40.312Z,101652.53
2019-03-31T21:55:13.436Z,101652.92
2019-03-31T21:57:45.919Z,101661.40
2019-03-31T22:00:20.854Z,101661.69
2019-03-31T22:02:54.970Z,101663.30
2019-03-31T22:05:27.750Z,101665.29
2019-03-31T22:08:03.809Z,101662.20
2019-03-31T22:10:35.160Z,101664.38
2019-03-31T22:13:09.365Z,101666.06
2019-03-31T22:15:42.054Z,101674.84
2019-03-31T22:18:14.623Z,101677.23
2019-03-31T22:20:47.506Z,101675.22
2019-03-31T22:23:20.506Z,101677.12
2019-03-31T22:25:53.581Z,101677.91
2019-03-31T22:28:26.163Z,101675.41
2019-03-31T22:30:58.840Z,101678.00
2019-03-31T22:33:31.527Z,101676.19
2019-03-31T22:36:22.527Z,101679.98
2019-03-31T22:38:56.431Z,101680.47
2019-03-31T22:41:29.103Z,101681.55
2019-03-31T22:44:01.687Z,101687.16
2019-03-31T22:46:34.360Z,101682.06
2019-03-31T22:49:07.463Z,101683.06
2019-03-31T22:51:40.037Z,101691.14
2019-03-31T22:54:12.603Z,101690.84
2019-03-31T22:56:45.339Z,101696.80
2019-03-31T22:59:17.866Z,101695.41
2019-03-31T23:01:50.442Z,101698.39
2019-03-31T23:04:23.019Z,101692.52
2019-03-31T23:06:55.695Z,101700.69
2019-03-31T23:09:28.274Z,101700.69
2019-03-31T23:12:00.952Z,101710.06
2019-03-31T23:14:33.529Z,101709.75
2019-03-31T23:17:06.208Z,101713.64
2019-03-31T23:19:38.785Z,101713.82
2019-03-31T23:22:11.468Z,101713.78
2019-03-31T23:24:43.937Z,101721.07
2019-03-31T23:27:16.103Z,101714.98
2019-03-31T23:29:48.578Z,101716.06
2019-03-31T23:32:21.159Z,101715.07
2019-03-31T23:34:54.101Z,101708.47
2019-03-31T23:37:28.473Z,101713.26
2019-03-31T23:40:02.267Z,101717.70
2019-03-31T23:42:34.994Z,101715.12
2019-03-31T23:45:09.465Z,101723.19
2019-03-31T23:47:42.044Z,101719.81
2019-03-31T23:50:15.333Z,101722.58
2019-03-31T23:52:48.017Z,101720.77
2019-03-31T23:55:20.485Z,101721.36
2019-03-31T23:57:54.192Z,101725.64
